Time;durP1;ratioP1;P1;durP2;ratioP2;P2;SDS_P1;SDS_P2;PMS_P1;PMS_P2;Temp;Humidity;BMP_temperature;BMP_pressure;BME280_temperature;BME280_humidity;BME280_pressure;Samples;Min_cycle;Max_cycle;Signal;HPM_P1;HPM_P2
2023/09/25 00:01:34;;;;;;;5.17;2.00;;;14.30;99.90;;;;;;5071938;28;20056;-66
2023/09/25 00:04:00;;;;;;;5.00;2.00;;;14.30;99.90;;;;;;5073760;28;20285;-66
2023/09/25 00:06:27;;;;;;;5.07;2.20;;;14.30;99.90;;;;;;5073136;28;20278;-66
2023/09/25 00:08:53;;;;;;;8.53;2.40;;;14.30;99.90;;;;;;5073216;28;20100;-66
2023/09/25 00:11:18;;;;;;;4.77;2.20;;;14.30;99.90;;;;;;5071752;28;20392;-66
2023/09/25 00:13:44;;;;;;;4.67;2.00;;;14.30;99.90;;;;;;5073085;28;20040;-67
2023/09/25 00:16:14;;;;;;;5.83;2.63;;;14.20;99.90;;;;;;5073118;28;20048;-66
2023/09/25 00:18:40;;;;;;;8.03;2.60;;;14.20;99.90;;;;;;5073232;28;20458;-67
2023/09/25 00:21:05;;;;;;;5.17;2.23;;;14.20;99.90;;;;;;5072972;28;20270;-66
2023/09/25 00:23:31;;;;;;;5.17;2.67;;;14.20;99.90;;;;;;5072991;28;20056;-66
2023/09/25 00:26:04;;;;;;;7.07;2.07;;;14.20;99.90;;;;;;5073014;28;20044;-67
2023/09/25 00:28:31;;;;;;;4.50;2.00;;;14.10;99.90;;;;;;5072848;28;20497;-66
2023/09/25 00:30:56;;;;;;;6.37;2.50;;;14.10;99.90;;;;;;5071894;28;20650;-66
2023/09/25 00:33:22;;;;;;;5.73;2.30;;;14.10;99.90;;;;;;5072905;28;20283;-66
2023/09/25 00:35:47;;;;;;;5.90;2.30;;;14.10;99.90;;;;;;5072856;28;20051;-66
2023/09/25 00:38:13;;;;;;;5.77;2.43;;;14.00;99.90;;;;;;5072860;28;20044;-66
2023/09/25 00:40:39;;;;;;;5.50;2.23;;;14.10;99.90;;;;;;5073427;28;20101;-66
2023/09/25 00:43:08;;;;;;;5.87;2.33;;;14.00;99.90;;;;;;5072797;28;20072;-66
2023/09/25 00:45:37;;;;;;;5.17;2.50;;;14.00;99.90;;;;;;5072799;28;20052;-66
2023/09/25 00:48:04;;;;;;;5.47;2.13;;;14.00;99.90;;;;;;5072750;28;20275;-66
2023/09/25 00:50:31;;;;;;;6.60;2.30;;;13.90;99.90;;;;;;5074948;28;20295;-66
2023/09/25 00:53:06;;;;;;;5.97;2.10;;;13.90;99.90;;;;;;5076315;28;20279;-66
2023/09/25 00:55:33;;;;;;;;;;;13.90;99.90;;;;;;5076751;28;20279;-66
2023/09/25 00:58:00;;;;;;;5.03;2.20;;;13.80;99.90;;;;;;5076177;28;19921;-66
2023/09/25 01:00:25;;;;;;;6.93;2.50;;;13.80;99.90;;;;;;5076152;28;20366;-66
2023/09/25 01:02:51;;;;;;;7.60;2.50;;;13.80;99.90;;;;;;5076645;28;20421;-67
2023/09/25 01:05:17;;;;;;;5.87;2.20;;;13.80;99.90;;;;;;5076591;28;20044;-66
2023/09/25 01:07:43;;;;;;;5.20;2.40;;;13.70;99.90;;;;;;5075801;28;20048;-66
2023/09/25 01:10:14;;;;;;;6.03;2.63;;;13.70;99.90;;;;;;5075635;28;20092;-66
2023/09/25 01:12:40;;;;;;;7.40;2.83;;;13.70;99.90;;;;;;5076865;28;20056;-66
2023/09/25 01:15:07;;;;;;;6.43;2.70;;;13.70;99.90;;;;;;5074761;28;20275;-66
2023/09/25 01:17:33;;;;;;;5.67;2.40;;;13.70;99.90;;;;;;5076614;28;20281;-66
2023/09/25 01:20:01;;;;;;;5.00;2.40;;;13.60;99.90;;;;;;5075867;28;20751;-67
2023/09/25 01:22:26;;;;;;;7.57;3.20;;;13.60;99.90;;;;;;5074719;28;20092;-66
2023/09/25 01:24:52;;;;;;;4.77;2.50;;;13.60;99.90;;;;;;5075773;28;20356;-67
2023/09/25 01:27:18;;;;;;;6.50;2.80;;;13.50;99.90;;;;;;5075679;28;20472;-66
2023/09/25 01:29:43;;;;;;;6.77;2.90;;;13.50;99.90;;;;;;5076102;28;20049;-66
2023/09/25 01:32:09;;;;;;;5.50;2.67;;;13.50;99.90;;;;;;5075626;28;20041;-66
2023/09/25 01:34:35;;;;;;;8.27;2.77;;;13.40;99.90;;;;;;5075649;28;20040;-66
2023/09/25 01:37:04;;;;;;;11.47;3.30;;;13.40;99.90;;;;;;5076045;28;20052;-66
2023/09/25 01:39:31;;;;;;;6.00;2.77;;;13.40;99.90;;;;;;5074199;28;20048;-66
2023/09/25 01:41:57;;;;;;;9.43;2.60;;;13.30;99.90;;;;;;5075372;28;20275;-66
2023/09/25 01:44:24;;;;;;;7.40;2.60;;;13.30;99.90;;;;;;5075650;28;20286;-66
2023/09/25 01:46:49;;;;;;;6.17;3.00;;;13.30;99.90;;;;;;5075894;28;20105;-66
2023/09/25 01:49:15;;;;;;;6.13;2.90;;;13.30;99.90;;;;;;5075225;28;20369;-66
2023/09/25 01:51:43;;;;;;;6.27;2.90;;;13.20;99.90;;;;;;5075287;28;20481;-66
2023/09/25 01:54:09;;;;;;;6.27;2.37;;;13.30;99.90;;;;;;5075174;28;20188;-67
2023/09/25 01:56:35;;;;;;;6.70;3.00;;;13.20;99.90;;;;;;5075135;28;20332;-66
2023/09/25 01:59:00;;;;;;;7.17;2.90;;;13.20;99.90;;;;;;5075306;28;20055;-66
2023/09/25 02:01:26;;;;;;;5.97;2.47;;;13.20;99.90;;;;;;5075026;28;20476;-66
2023/09/25 02:03:52;;;;;;;5.70;3.00;;;13.20;99.90;;;;;;5075296;28;20045;-66
2023/09/25 02:06:17;;;;;;;6.20;2.80;;;13.20;99.90;;;;;;5075746;28;20055;-66
2023/09/25 02:08:43;;;;;;;6.70;2.90;;;13.20;99.90;;;;;;5058076;28;20410;-66
2023/09/25 02:11:10;;;;;;;10.70;3.00;;;13.20;99.90;;;;;;5074644;28;20056;-66
2023/09/25 02:13:35;;;;;;;5.50;2.90;;;13.20;99.90;;;;;;5074806;28;20677;-66
2023/09/25 02:16:01;;;;;;;6.80;2.87;;;13.20;99.90;;;;;;5075173;28;20139;-66
2023/09/25 02:18:27;;;;;;;5.60;2.83;;;13.10;99.90;;;;;;5074775;28;20173;-66
2023/09/25 02:20:52;;;;;;;5.60;2.87;;;13.10;99.90;;;;;;5075208;28;20469;-66
2023/09/25 02:23:19;;;;;;;6.40;2.80;;;13.10;99.90;;;;;;5074839;28;20048;-66
2023/09/25 02:25:44;;;;;;;5.87;2.90;;;13.10;99.90;;;;;;5073264;28;20060;-66
2023/09/25 02:28:10;;;;;;;7.53;3.30;;;13.10;99.90;;;;;;5074477;28;20275;-66
2023/09/25 02:30:36;;;;;;;6.73;2.77;;;13.10;99.90;;;;;;5074682;28;20077;-66
2023/09/25 02:33:02;;;;;;;5.50;3.00;;;13.10;99.90;;;;;;5075176;28;20476;-67
2023/09/25 02:35:28;;;;;;;6.03;3.03;;;13.10;99.90;;;;;;5074029;28;20516;-66
2023/09/25 02:37:54;;;;;;;5.70;2.90;;;13.10;99.90;;;;;;5073621;28;20287;-66
2023/09/25 02:40:20;;;;;;;6.53;2.77;;;13.10;99.90;;;;;;5072764;28;20049;-66
2023/09/25 02:42:46;;;;;;;8.03;2.90;;;13.10;99.90;;;;;;5074234;28;20044;-66
2023/09/25 02:45:11;;;;;;;5.17;2.80;;;13.10;99.90;;;;;;5074166;28;20109;-66
2023/09/25 02:47:37;;;;;;;6.70;3.00;;;13.10;99.90;;;;;;5074133;28;20283;-66
2023/09/25 02:50:03;;;;;;;5.43;2.70;;;13.10;99.90;;;;;;5074020;28;20036;-66
2023/09/25 02:52:29;;;;;;;6.57;3.10;;;13.10;99.90;;;;;;5074043;28;20091;-66
2023/09/25 02:54:54;;;;;;;6.13;2.90;;;13.10;99.90;;;;;;5074029;28;20311;-66
2023/09/25 02:57:20;;;;;;;5.07;2.53;;;13.10;99.90;;;;;;5073982;28;20051;-66
2023/09/25 02:59:46;;;;;;;8.27;3.10;;;13.10;99.90;;;;;;5072968;28;20056;-66
2023/09/25 03:02:11;;;;;;;9.27;3.37;;;13.00;99.90;;;;;;5074186;28;20059;-66
2023/09/25 03:04:37;;;;;;;6.60;2.60;;;13.00;99.90;;;;;;5073833;28;20048;-66
2023/09/25 03:07:03;;;;;;;7.50;2.70;;;13.00;99.90;;;;;;5073206;28;20044;-67
2023/09/25 03:09:29;;;;;;;6.73;2.83;;;13.00;99.90;;;;;;5073577;28;20064;-66
2023/09/25 03:11:54;;;;;;;5.33;2.90;;;13.00;99.90;;;;;;5073435;28;20048;-66
2023/09/25 03:14:20;;;;;;;6.47;2.90;;;12.90;99.90;;;;;;5074282;28;20185;-66
2023/09/25 03:16:47;;;;;;;7.00;2.80;;;12.90;99.90;;;;;;5074279;28;20040;-66
2023/09/25 03:19:13;;;;;;;6.50;3.17;;;12.90;99.90;;;;;;5072488;28;20079;-66
2023/09/25 03:21:41;;;;;;;5.67;3.07;;;12.90;99.90;;;;;;5072524;28;20298;-66
2023/09/25 03:24:07;;;;;;;5.63;3.10;;;12.90;99.90;;;;;;5073587;28;20298;-67
2023/09/25 03:26:33;;;;;;;6.07;3.30;;;12.90;99.90;;;;;;5073618;28;20362;-66
2023/09/25 03:28:59;;;;;;;5.70;2.90;;;12.90;99.90;;;;;;5074016;28;20366;-66
2023/09/25 03:31:24;;;;;;;9.27;3.43;;;12.90;99.90;;;;;;5073886;28;20161;-66
2023/09/25 03:33:50;;;;;;;7.00;2.80;;;12.90;99.90;;;;;;5073856;28;20358;-66
2023/09/25 03:36:16;;;;;;;8.20;3.20;;;12.90;99.90;;;;;;5073511;28;20052;-66
2023/09/25 03:38:42;;;;;;;7.73;3.43;;;12.90;99.90;;;;;;5073669;28;20080;-66
2023/09/25 03:41:07;;;;;;;6.93;2.80;;;12.90;99.90;;;;;;5073243;28;20392;-67
2023/09/25 03:43:33;;;;;;;8.87;3.30;;;12.90;99.90;;;;;;5073996;28;20036;-66
2023/09/25 03:45:59;;;;;;;6.70;3.37;;;12.90;99.90;;;;;;5073427;28;20054;-66
2023/09/25 03:48:24;;;;;;;5.77;3.07;;;12.90;99.90;;;;;;5072688;28;20045;-66
2023/09/25 03:50:50;;;;;;;5.30;2.50;;;12.90;99.90;;;;;;5073783;28;20041;-66
2023/09/25 03:53:16;;;;;;;6.40;2.80;;;12.90;99.90;;;;;;5073793;28;20047;-67
2023/09/25 03:55:42;;;;;;;7.37;3.53;;;12.90;99.90;;;;;;5072955;28;20113;-66
2023/09/25 03:58:07;;;;;;;6.13;3.27;;;12.90;99.90;;;;;;5073230;28;20405;-67
2023/09/25 04:00:33;;;;;;;7.23;3.30;;;12.90;99.90;;;;;;5073801;28;20275;-66
2023/09/25 04:02:59;;;;;;;5.77;3.10;;;12.90;99.90;;;;;;5073700;28;20040;-66
2023/09/25 04:05:25;;;;;;;6.70;3.33;;;12.90;99.90;;;;;;5073887;28;20062;-66
2023/09/25 04:07:50;;;;;;;6.67;3.10;;;12.90;99.90;;;;;;5073127;28;20485;-66
2023/09/25 04:10:17;;;;;;;6.00;3.03;;;12.90;99.90;;;;;;5072707;28;20056;-66
2023/09/25 04:12:43;;;;;;;6.43;3.30;;;12.80;99.90;;;;;;5073553;28;20044;-66
2023/09/25 04:15:16;;;;;;;8.10;3.17;;;12.80;99.90;;;;;;5073242;28;20275;-66
2023/09/25 04:17:42;;;;;;;6.50;2.77;;;12.80;99.90;;;;;;5073318;28;20107;-66
2023/09/25 04:20:15;;;;;;;7.00;3.00;;;12.80;99.90;;;;;;5072985;28;20304;-66
2023/09/25 04:22:41;;;;;;;6.20;2.70;;;12.90;99.90;;;;;;5073597;28;20263;-66
2023/09/25 04:25:10;;;;;;;5.57;3.03;;;12.90;99.90;;;;;;5074760;28;20768;-66
2023/09/25 04:27:36;;;;;;;7.20;3.07;;;12.90;99.90;;;;;;5076540;28;20059;-66
2023/09/25 04:30:03;;;;;;;7.57;3.50;;;12.80;99.90;;;;;;5075564;28;20660;-66
2023/09/25 04:32:29;;;;;;;6.70;3.00;;;12.80;99.90;;;;;;5076569;28;20750;-66
2023/09/25 04:34:55;;;;;;;5.27;2.87;;;12.90;99.90;;;;;;5076573;28;20328;-66
2023/09/25 04:37:20;;;;;;;5.63;2.80;;;12.90;99.90;;;;;;5076473;28;20481;-66
2023/09/25 04:39:46;;;;;;;6.33;3.00;;;12.80;99.90;;;;;;5075264;28;20119;-66
2023/09/25 04:42:12;;;;;;;5.77;2.50;;;12.90;99.90;;;;;;5076603;28;20091;-67
2023/09/25 04:44:39;;;;;;;5.63;2.63;;;12.90;99.90;;;;;;5076348;28;20078;-66
2023/09/25 04:47:04;;;;;;;5.57;2.93;;;12.90;99.90;;;;;;5076285;28;20055;-66
2023/09/25 04:49:30;;;;;;;5.83;2.80;;;12.90;99.90;;;;;;5076189;28;20290;-66
2023/09/25 04:51:56;;;;;;;5.90;3.00;;;12.90;99.90;;;;;;5076216;28;20052;-66
2023/09/25 04:54:22;;;;;;;6.77;3.10;;;12.90;99.90;;;;;;5076148;28;20390;-67
2023/09/25 04:56:47;;;;;;;6.47;2.70;;;12.90;99.90;;;;;;5076171;28;20477;-66
2023/09/25 04:59:13;;;;;;;5.70;2.73;;;12.90;99.90;;;;;;5076022;28;20387;-66
2023/09/25 05:01:39;;;;;;;5.07;2.77;;;12.90;99.90;;;;;;5076008;28;20040;-66
2023/09/25 05:04:05;;;;;;;5.90;2.43;;;12.90;99.90;;;;;;5076254;28;20044;-66
2023/09/25 05:06:31;;;;;;;5.20;2.77;;;12.90;99.90;;;;;;5075887;28;20063;-66
2023/09/25 05:08:57;;;;;;;5.37;2.90;;;12.90;99.90;;;;;;5076372;28;20366;-66
2023/09/25 05:11:23;;;;;;;8.17;2.93;;;12.90;99.90;;;;;;5074361;28;20113;-66
2023/09/25 05:13:49;;;;;;;5.07;2.67;;;12.90;99.90;;;;;;5075788;28;20056;-66
2023/09/25 05:16:15;;;;;;;7.13;3.23;;;12.90;99.90;;;;;;5075713;28;20044;-66
2023/09/25 05:18:42;;;;;;;5.50;2.90;;;12.90;99.90;;;;;;5074617;28;20397;-66
2023/09/25 05:21:08;;;;;;;7.60;3.33;;;12.90;99.90;;;;;;5075654;28;20055;-66
2023/09/25 05:23:34;;;;;;;5.30;2.50;;;12.90;99.90;;;;;;5075727;28;20282;-66
2023/09/25 05:26:00;;;;;;;7.00;2.97;;;12.90;99.90;;;;;;5075681;28;20459;-66
2023/09/25 05:28:26;;;;;;;4.77;2.60;;;13.00;99.90;;;;;;5076363;28;20318;-66
2023/09/25 05:30:54;;;;;;;7.57;2.87;;;12.90;99.90;;;;;;5076282;28;20330;-66
2023/09/25 05:33:20;;;;;;;6.63;2.90;;;12.90;99.90;;;;;;5075640;28;20079;-68
2023/09/25 05:35:47;;;;;;;5.17;2.50;;;13.00;99.90;;;;;;5074843;28;20283;-66
2023/09/25 05:38:13;;;;;;;5.50;2.87;;;13.00;99.90;;;;;;5076300;28;20312;-66
2023/09/25 05:40:38;;;;;;;6.03;2.53;;;13.00;99.90;;;;;;5075400;28;20623;-66
2023/09/25 05:43:04;;;;;;;6.17;2.47;;;13.00;99.90;;;;;;5075336;28;20036;-66
2023/09/25 05:45:31;;;;;;;4.30;2.40;;;13.00;99.90;;;;;;5075360;28;20052;-66
2023/09/25 05:47:57;;;;;;;6.97;3.03;;;13.00;99.90;;;;;;5075237;28;20047;-66
2023/09/25 05:50:26;;;;;;;7.37;2.83;;;13.00;99.90;;;;;;5075113;28;20643;-67
2023/09/25 05:52:51;;;;;;;6.57;2.40;;;13.00;99.90;;;;;;5075662;28;20131;-66
2023/09/25 05:55:17;;;;;;;4.90;2.57;;;13.00;99.90;;;;;;5075069;28;20313;-66
2023/09/25 05:57:43;;;;;;;4.87;2.40;;;13.10;99.90;;;;;;5075018;28;20592;-66
2023/09/25 06:00:12;;;;;;;7.03;2.30;;;13.10;99.90;;;;;;5074984;28;20040;-67
2023/09/25 06:02:41;;;;;;;5.23;2.73;;;13.10;99.90;;;;;;5074849;28;20037;-67
2023/09/25 06:05:08;;;;;;;6.00;2.77;;;13.10;99.90;;;;;;5074878;28;20275;-67
2023/09/25 06:07:35;;;;;;;4.83;2.57;;;13.10;99.90;;;;;;5074745;28;20323;-67
2023/09/25 06:10:04;;;;;;;5.07;2.70;;;13.20;99.90;;;;;;5074560;28;20310;-67
2023/09/25 06:12:30;;;;;;;4.87;2.60;;;13.20;99.90;;;;;;5074644;28;20310;-67
2023/09/25 06:14:55;;;;;;;5.40;2.87;;;13.20;99.90;;;;;;5075368;28;20278;-67
2023/09/25 06:17:21;;;;;;;5.13;2.40;;;13.20;99.90;;;;;;5075272;28;20052;-67
2023/09/25 06:19:47;;;;;;;5.33;2.03;;;13.30;99.90;;;;;;5074645;28;20051;-67
2023/09/25 06:22:13;;;;;;;5.67;2.20;;;13.40;99.90;;;;;;5074536;28;20047;-67
2023/09/25 06:24:38;;;;;;;6.27;2.13;;;13.40;99.90;;;;;;5074546;28;20052;-67
2023/09/25 06:27:04;;;;;;;5.13;2.27;;;13.40;99.90;;;;;;5075383;28;20465;-67
2023/09/25 06:29:31;;;;;;;5.13;2.20;;;13.50;99.90;;;;;;5074371;28;20602;-65
2023/09/25 06:31:57;;;;;;;5.63;2.23;;;13.50;99.90;;;;;;5074362;28;20302;-65
2023/09/25 06:34:22;;;;;;;4.80;2.20;;;13.60;99.90;;;;;;5074824;28;20759;-65
2023/09/25 06:36:48;;;;;;;5.60;2.63;;;13.60;99.90;;;;;;5074259;28;20052;-65
2023/09/25 06:39:14;;;;;;;8.33;2.20;;;13.60;99.90;;;;;;5074150;28;20044;-65
2023/09/25 06:41:42;;;;;;;5.80;2.47;;;13.70;99.90;;;;;;5072842;28;20041;-65
2023/09/25 06:44:08;;;;;;;5.13;2.40;;;13.70;99.90;;;;;;5073669;28;20489;-65
2023/09/25 06:46:34;;;;;;;6.00;2.23;;;13.70;99.90;;;;;;5072451;28;20282;-65
2023/09/25 06:49:01;;;;;;;6.80;2.53;;;13.80;99.90;;;;;;5073690;28;20549;-65
2023/09/25 06:51:29;;;;;;;6.63;2.80;;;13.80;99.90;;;;;;5074175;28;20361;-65
2023/09/25 06:53:54;;;;;;;5.67;2.47;;;13.80;99.90;;;;;;5074025;28;20294;-65
2023/09/25 06:56:20;;;;;;;4.37;2.23;;;13.90;99.90;;;;;;5074143;28;20635;-65
2023/09/25 06:58:46;;;;;;;5.97;2.30;;;13.90;99.90;;;;;;5074798;28;20368;-67
2023/09/25 07:01:12;;;;;;;5.37;2.93;;;14.00;99.90;;;;;;5073767;28;20151;-65
2023/09/25 07:03:37;;;;;;;6.10;2.80;;;14.10;99.90;;;;;;5074300;28;20049;-65
2023/09/25 07:06:03;;;;;;;5.23;2.70;;;14.20;99.90;;;;;;5073826;28;20290;-65
2023/09/25 07:08:30;;;;;;;6.47;2.43;;;14.20;99.90;;;;;;5074463;28;20045;-65
2023/09/25 07:10:58;;;;;;;6.40;2.57;;;14.40;99.90;;;;;;5073340;28;20572;-65
2023/09/25 07:13:24;;;;;;;5.13;2.17;;;14.50;99.90;;;;;;5073774;28;20336;-65
2023/09/25 07:15:50;;;;;;;3.97;2.03;;;14.60;99.90;;;;;;5073640;28;20336;-65
2023/09/25 07:18:17;;;;;;;6.80;2.33;;;14.70;99.90;;;;;;5072530;28;20693;-64
2023/09/25 07:20:46;;;;;;;5.00;2.40;;;14.70;99.90;;;;;;5072352;28;20298;-64
2023/09/25 07:23:12;;;;;;;5.90;2.17;;;14.80;99.90;;;;;;5074431;28;20095;-63
2023/09/25 07:25:38;;;;;;;4.50;2.03;;;14.90;99.90;;;;;;5073592;28;20780;-64
2023/09/25 07:28:04;;;;;;;6.60;2.60;;;15.00;99.90;;;;;;5074060;28;20052;-64
2023/09/25 07:30:30;;;;;;;5.13;2.23;;;15.10;99.90;;;;;;5073465;28;20048;-64
2023/09/25 07:32:56;;;;;;;4.77;2.30;;;15.10;99.90;;;;;;5073420;28;20277;-64
2023/09/25 07:35:22;;;;;;;4.87;2.23;;;15.20;99.90;;;;;;5073530;28;20127;-64
2023/09/25 07:37:48;;;;;;;5.57;2.23;;;15.20;99.90;;;;;;5073410;28;20041;-64
2023/09/25 07:40:15;;;;;;;8.03;2.17;;;15.30;99.90;;;;;;5072194;28;20457;-64
2023/09/25 07:42:42;;;;;;;5.90;2.33;;;15.20;99.90;;;;;;5073322;28;20499;-64
2023/09/25 07:45:22;;;;;;;5.53;2.10;;;15.20;99.90;;;;;;5074171;28;20119;-64
2023/09/25 07:47:48;;;;;;;5.60;2.23;;;15.30;99.90;;;;;;5073415;28;20045;-64
2023/09/25 07:50:14;;;;;;;4.97;2.13;;;15.30;99.90;;;;;;5073513;28;20044;-64
2023/09/25 07:52:40;;;;;;;4.50;2.13;;;15.30;99.90;;;;;;5073266;28;20472;-64
2023/09/25 07:55:08;;;;;;;5.23;2.20;;;15.40;99.90;;;;;;5073305;28;20070;-64
2023/09/25 07:57:39;;;;;;;4.00;1.63;;;15.50;99.90;;;;;;5073278;28;20293;-64
2023/09/25 08:00:23;;;;;;;5.63;2.50;;;15.50;99.90;;;;;;5077211;28;20469;-64
2023/09/25 08:02:52;;;;;;;8.20;2.43;;;15.70;99.90;;;;;;5077130;28;20499;-64
2023/09/25 08:05:22;;;;;;;5.83;2.10;;;15.70;99.90;;;;;;5077328;28;20078;-64
2023/09/25 08:07:52;;;;;;;4.93;2.20;;;15.80;99.90;;;;;;5076026;28;20054;-64
2023/09/25 08:10:17;;;;;;;6.13;2.00;;;15.80;99.90;;;;;;5076943;28;20143;-64
2023/09/25 08:12:44;;;;;;;6.03;2.10;;;15.90;99.90;;;;;;5076947;28;20134;-64
2023/09/25 08:15:10;;;;;;;4.97;2.20;;;15.90;99.90;;;;;;5077338;28;20045;-64
2023/09/25 08:17:37;;;;;;;7.63;2.60;;;16.00;99.90;;;;;;5076848;28;20461;-63
2023/09/25 08:20:14;;;;;;;6.27;2.37;;;16.10;99.90;;;;;;5076964;28;20102;-64
2023/09/25 08:22:43;;;;;;;4.43;2.07;;;16.10;99.90;;;;;;5077783;28;20051;-64
2023/09/25 08:25:09;;;;;;;5.07;2.40;;;16.20;99.90;;;;;;5076891;28;20048;-64
2023/09/25 08:27:41;;;;;;;6.10;2.20;;;16.20;99.90;;;;;;5077390;28;20106;-64
2023/09/25 08:30:08;;;;;;;6.30;2.10;;;16.20;99.90;;;;;;5077062;28;20052;-64
2023/09/25 08:32:34;;;;;;;5.47;2.13;;;16.20;99.90;;;;;;5077273;28;20072;-65
2023/09/25 08:35:01;;;;;;;6.33;2.67;;;16.30;99.90;;;;;;5076961;28;20481;-64
2023/09/25 08:37:26;;;;;;;5.37;2.10;;;16.30;99.90;;;;;;5076677;28;20051;-64
2023/09/25 08:39:53;;;;;;;4.20;1.90;;;16.40;99.90;;;;;;5076614;28;20041;-64
2023/09/25 08:42:25;;;;;;;6.23;2.50;;;16.50;99.90;;;;;;5077047;28;20487;-64
2023/09/25 08:44:53;;;;;;;5.03;2.10;;;16.60;99.90;;;;;;5076482;28;20094;-64
2023/09/25 08:47:20;;;;;;;4.97;2.50;;;16.70;99.90;;;;;;5075791;28;20106;-64
2023/09/25 08:49:49;;;;;;;5.10;2.10;;;16.70;99.90;;;;;;5076293;28;20045;-64
2023/09/25 08:52:16;;;;;;;5.93;2.43;;;16.80;99.90;;;;;;5076336;28;20097;-64
2023/09/25 08:54:42;;;;;;;7.10;2.40;;;16.80;99.90;;;;;;5076275;28;20064;-64
2023/09/25 08:57:09;;;;;;;5.70;2.50;;;16.70;99.90;;;;;;5076362;28;20037;-64
2023/09/25 08:59:38;;;;;;;5.13;2.30;;;16.70;99.90;;;;;;5076174;28;20166;-64
2023/09/25 09:02:05;;;;;;;4.53;1.80;;;16.70;99.90;;;;;;5075391;28;20041;-63
2023/09/25 09:04:30;;;;;;;6.80;2.20;;;16.80;99.90;;;;;;5076162;28;20084;-66
2023/09/25 09:06:56;;;;;;;4.40;2.00;;;16.80;99.90;;;;;;5076005;28;20102;-66
2023/09/25 09:09:22;;;;;;;4.90;2.20;;;16.80;99.90;;;;;;5075914;28;20496;-66
2023/09/25 09:11:52;;;;;;;6.93;2.10;;;16.80;99.90;;;;;;5075324;28;20400;-67
2023/09/25 09:14:43;;;;;;;6.83;2.40;;;16.80;99.90;;;;;;5075821;28;20047;-67
2023/09/25 09:17:11;;;;;;;6.30;2.43;;;16.90;99.90;;;;;;5076264;28;20093;-66
2023/09/25 09:19:45;;;;;;;4.40;2.30;;;16.90;99.90;;;;;;5075734;28;20091;-66
2023/09/25 09:22:16;;;;;;;5.72;2.47;;;16.90;99.90;;;;;;5075763;28;20111;-66
2023/09/25 09:24:43;;;;;;;4.77;2.17;;;16.90;99.90;;;;;;5074648;28;20052;-65
2023/09/25 09:27:11;;;;;;;5.43;2.23;;;16.90;99.90;;;;;;5075847;28;20071;-64
2023/09/25 09:29:39;;;;;;;5.90;2.73;;;17.00;99.90;;;;;;5075620;28;20045;-66
2023/09/25 09:32:05;;;;;;;5.83;2.43;;;17.10;99.90;;;;;;5075612;28;20396;-64
2023/09/25 09:34:32;;;;;;;4.97;2.23;;;17.20;99.90;;;;;;5075549;28;20084;-64
2023/09/25 09:36:58;;;;;;;4.83;2.00;;;17.20;99.90;;;;;;5075513;28;20045;-64
2023/09/25 09:39:34;;;;;;;6.07;2.90;;;17.20;99.90;;;;;;5074990;28;20052;-64
2023/09/25 09:42:04;;;;;;;4.97;2.37;;;17.20;99.90;;;;;;5075532;28;20472;-64
2023/09/25 09:44:32;;;;;;;4.30;2.40;;;17.20;99.90;;;;;;5075661;28;20503;-64
2023/09/25 09:47:02;;;;;;;6.17;2.77;;;17.20;99.90;;;;;;5075363;28;20055;-64
2023/09/25 09:49:32;;;;;;;5.67;2.70;;;17.20;99.90;;;;;;5075270;28;20056;-64
2023/09/25 09:52:02;;;;;;;5.27;2.23;;;17.20;99.90;;;;;;5075148;28;20048;-64
2023/09/25 09:54:34;;;;;;;4.80;2.30;;;17.30;99.90;;;;;;5075186;28;20127;-64
2023/09/25 09:57:00;;;;;;;4.77;2.30;;;17.30;99.90;;;;;;5075383;28;20054;-64
2023/09/25 09:59:26;;;;;;;6.60;2.33;;;17.40;99.90;;;;;;5075730;28;20059;-64
2023/09/25 10:01:52;;;;;;;5.60;2.40;;;17.50;99.90;;;;;;5075651;28;20053;-64
2023/09/25 10:04:18;;;;;;;5.50;2.30;;;17.50;99.90;;;;;;5074828;28;20044;-64
2023/09/25 10:06:50;;;;;;;6.33;2.53;;;17.50;99.90;;;;;;5074962;28;20059;-64
2023/09/25 10:09:16;;;;;;;4.80;2.20;;;17.50;99.90;;;;;;5074859;28;20052;-64
2023/09/25 10:11:54;;;;;;;6.07;2.53;;;17.60;99.90;;;;;;5074432;28;20090;-64
2023/09/25 10:14:21;;;;;;;6.60;2.50;;;17.50;99.90;;;;;;5075706;28;20087;-64
2023/09/25 10:17:03;;;;;;;5.63;2.60;;;17.60;99.90;;;;;;5075086;28;20051;-64
2023/09/25 10:19:40;;;;;;;5.63;2.23;;;17.60;99.90;;;;;;5074689;28;20052;-64
2023/09/25 10:22:20;;;;;;;7.97;3.00;;;17.70;99.90;;;;;;5074327;28;20099;-64
2023/09/25 10:24:48;;;;;;;6.13;2.83;;;17.70;99.90;;;;;;5074602;28;20088;-64
2023/09/25 10:27:15;;;;;;;6.10;3.20;;;17.70;99.90;;;;;;5074441;28;20048;-64
2023/09/25 10:30:02;;;;;;;6.17;2.53;;;17.80;99.90;;;;;;5074429;28;20380;-64
2023/09/25 10:32:31;;;;;;;4.70;2.43;;;17.80;99.90;;;;;;5074460;28;20480;-64
2023/09/25 10:34:56;;;;;;;5.60;2.67;;;17.90;99.90;;;;;;5073976;28;20497;-64
2023/09/25 10:37:22;;;;;;;6.60;2.70;;;17.90;99.90;;;;;;5074276;28;20045;-64
2023/09/25 10:40:09;;;;;;;5.83;2.80;;;18.00;99.90;;;;;;5075136;28;20523;-64
2023/09/25 10:42:35;;;;;;;6.73;2.70;;;18.00;99.90;;;;;;5074759;28;20056;-64
2023/09/25 10:45:01;;;;;;;5.10;2.40;;;18.10;99.90;;;;;;5074197;28;20145;-64
2023/09/25 10:47:31;;;;;;;6.87;2.20;;;18.10;99.90;;;;;;5074239;28;20128;-65
2023/09/25 10:49:57;;;;;;;5.67;2.60;;;18.10;99.90;;;;;;5073929;28;20044;-64
2023/09/25 10:52:22;;;;;;;6.67;3.13;;;18.30;99.90;;;;;;5072695;28;20040;-65
2023/09/25 10:54:48;;;;;;;5.23;2.37;;;18.30;99.90;;;;;;5073989;28;20048;-65
2023/09/25 10:57:14;;;;;;;5.83;3.10;;;18.40;99.90;;;;;;5074614;28;20058;-65
2023/09/25 10:59:40;;;;;;;6.20;2.83;;;18.40;99.90;;;;;;5074236;28;20477;-65
2023/09/25 11:02:06;;;;;;;6.40;3.23;;;18.50;99.90;;;;;;5073919;28;20583;-65
2023/09/25 11:04:31;;;;;;;4.60;2.30;;;18.60;99.90;;;;;;5073605;28;20052;-64
2023/09/25 11:06:58;;;;;;;5.03;2.67;;;18.60;99.90;;;;;;5072735;28;20044;-64
2023/09/25 11:09:25;;;;;;;5.67;2.90;;;18.70;99.90;;;;;;5074583;28;20086;-65
2023/09/25 11:11:53;;;;;;;5.97;2.93;;;18.70;99.90;;;;;;5074295;28;20109;-66
2023/09/25 11:14:18;;;;;;;6.13;2.63;;;18.90;99.90;;;;;;5072743;28;20048;-65
2023/09/25 11:16:45;;;;;;;5.70;2.40;;;18.90;99.90;;;;;;5073715;28;20476;-65
2023/09/25 11:19:15;;;;;;;6.43;2.70;;;19.00;99.90;;;;;;5072486;28;20045;-65
2023/09/25 11:21:45;;;;;;;5.90;2.70;;;18.90;99.90;;;;;;5073708;28;20036;-65
2023/09/25 11:24:12;;;;;;;6.63;2.83;;;18.90;99.90;;;;;;5074415;28;20052;-65
2023/09/25 11:26:38;;;;;;;7.40;2.60;;;19.00;99.90;;;;;;5073550;28;20508;-65
2023/09/25 11:29:08;;;;;;;6.13;2.53;;;19.00;99.90;;;;;;5074603;28;20045;-64
2023/09/25 11:31:35;;;;;;;5.63;2.20;;;19.10;99.90;;;;;;5074003;28;20049;-65
2023/09/25 11:34:00;;;;;;;7.23;3.40;;;19.10;99.90;;;;;;5073145;28;20055;-64
2023/09/25 11:36:27;;;;;;;5.60;2.70;;;19.10;99.90;;;;;;5073532;28;20048;-64
2023/09/25 11:38:52;;;;;;;4.50;2.37;;;19.10;99.90;;;;;;5073435;28;20476;-64
2023/09/25 11:41:18;;;;;;;6.53;2.67;;;19.20;99.90;;;;;;5073922;28;20098;-67
2023/09/25 11:43:44;;;;;;;7.80;2.77;;;19.30;99.90;;;;;;5073979;28;20384;-64
2023/09/25 11:46:09;;;;;;;5.30;2.60;;;19.40;99.90;;;;;;5073349;28;20044;-65
2023/09/25 11:48:38;;;;;;;6.03;2.90;;;19.40;99.90;;;;;;5073874;28;20058;-64
2023/09/25 11:51:03;;;;;;;6.43;2.80;;;19.50;99.90;;;;;;5073230;28;20094;-64
2023/09/25 11:53:29;;;;;;;6.47;2.57;;;19.60;99.90;;;;;;5073658;28;20049;-64
2023/09/25 11:55:55;;;;;;;6.73;3.30;;;19.60;99.90;;;;;;5073787;28;20114;-64
2023/09/25 11:58:21;;;;;;;8.80;2.50;;;19.70;99.90;;;;;;5073460;28;20084;-65
2023/09/25 12:00:46;;;;;;;7.83;2.93;;;19.70;99.90;;;;;;5073272;28;20037;-64
2023/09/25 12:03:12;;;;;;;5.97;2.87;;;19.80;99.90;;;;;;5073528;28;20485;-65
2023/09/25 12:05:38;;;;;;;6.73;3.20;;;19.80;99.90;;;;;;5072253;28;20082;-64
2023/09/25 12:08:06;;;;;;;8.33;3.87;;;19.80;99.90;;;;;;5073197;28;20048;-64
2023/09/25 12:10:38;;;;;;;6.17;3.03;;;19.80;99.90;;;;;;5055116;28;20051;-64
2023/09/25 12:13:07;;;;;;;5.50;3.03;;;19.80;99.90;;;;;;5073232;28;20141;-64
2023/09/25 12:15:33;;;;;;;7.07;2.90;;;19.90;99.90;;;;;;5073624;28;20059;-64
2023/09/25 12:17:59;;;;;;;6.90;3.40;;;19.90;99.90;;;;;;5073670;28;20052;-64
2023/09/25 12:20:25;;;;;;;5.83;2.60;;;19.80;99.90;;;;;;5073081;28;20396;-65
2023/09/25 12:22:53;;;;;;;7.97;3.10;;;19.90;99.90;;;;;;5073627;28;20048;-64
2023/09/25 12:25:19;;;;;;;7.47;3.63;;;19.90;99.90;;;;;;5073525;28;20057;-65
2023/09/25 12:27:46;;;;;;;7.27;3.10;;;19.90;99.90;;;;;;5073060;28;20048;-64
2023/09/25 12:30:17;;;;;;;6.93;2.80;;;19.90;99.90;;;;;;5073240;28;20113;-64
2023/09/25 12:32:45;;;;;;;7.77;2.67;;;19.90;99.90;;;;;;5072980;28;20559;-64
2023/09/25 12:35:15;;;;;;;6.37;2.83;;;19.90;99.90;;;;;;5073192;28;20369;-64
2023/09/25 12:37:41;;;;;;;7.57;2.60;;;19.70;99.90;;;;;;5072948;28;20053;-64
2023/09/25 12:40:08;;;;;;;6.47;2.80;;;19.70;99.90;;;;;;5072922;28;20052;-64
2023/09/25 12:42:34;;;;;;;6.73;2.80;;;19.70;99.90;;;;;;5071851;28;20369;-64
2023/09/25 12:45:00;;;;;;;5.80;2.70;;;19.60;99.90;;;;;;5073562;28;20385;-64
2023/09/25 12:47:26;;;;;;;7.13;2.83;;;19.60;99.90;;;;;;5076476;28;20055;-64